sensor_id;sensor_type;location;lat;lon;timestamp;P1;durP1;ratioP1;P2;durP2;ratioP2
549;SDS011;20066;48.764;9.176;2023-04-25T00:01:27;3.55;;;1.95;;
549;SDS011;20066;48.764;9.176;2023-04-25T00:03:56;3.63;;;1.95;;
549;SDS011;20066;48.764;9.176;2023-04-25T00:06:25;3.72;;;1.75;;
549;SDS011;20066;48.764;9.176;2023-04-25T00:08:53;4.00;;;1.80;;
549;SDS011;20066;48.764;9.176;2023-04-25T00:11:21;3.28;;;1.60;;
549;SDS011;20066;48.764;9.176;2023-04-25T00:13:49;3.22;;;1.70;;
549;SDS011;20066;48.764;9.176;2023-04-25T00:16:17;3.47;;;1.98;;
549;SDS011;20066;48.764;9.176;2023-04-25T00:18:45;4.03;;;1.70;;
549;SDS011;20066;48.764;9.176;2023-04-25T00:21:18;4.13;;;1.90;;
549;SDS011;20066;48.764;9.176;2023-04-25T00:23:47;2.10;;;1.48;;
549;SDS011;20066;48.764;9.176;2023-04-25T00:26:15;5.03;;;2.10;;
549;SDS011;20066;48.764;9.176;2023-04-25T00:28:43;2.50;;;1.70;;
549;SDS011;20066;48.764;9.176;2023-04-25T00:31:11;1.70;;;1.25;;
549;SDS011;20066;48.764;9.176;2023-04-25T00:33:39;3.05;;;1.83;;
549;SDS011;20066;48.764;9.176;2023-04-25T00:36:07;8.32;;;1.90;;
549;SDS011;20066;48.764;9.176;2023-04-25T00:38:36;4.28;;;1.95;;
549;SDS011;20066;48.764;9.176;2023-04-25T00:41:04;2.90;;;2.00;;
549;SDS011;20066;48.764;9.176;2023-04-25T00:43:33;2.95;;;2.08;;
549;SDS011;20066;48.764;9.176;2023-04-25T00:46:03;4.70;;;2.72;;
549;SDS011;20066;48.764;9.176;2023-04-25T00:48:31;5.97;;;1.85;;
549;SDS011;20066;48.764;9.176;2023-04-25T00:50:59;3.65;;;1.70;;
549;SDS011;20066;48.764;9.176;2023-04-25T00:53:27;2.90;;;2.20;;
549;SDS011;20066;48.764;9.176;2023-04-25T00:55:57;2.63;;;1.90;;
549;SDS011;20066;48.764;9.176;2023-04-25T00:58:25;3.00;;;1.58;;
549;SDS011;20066;48.764;9.176;2023-04-25T01:00:52;2.72;;;1.90;;
549;SDS011;20066;48.764;9.176;2023-04-25T01:03:20;2.70;;;2.10;;
549;SDS011;20066;48.764;9.176;2023-04-25T01:05:49;5.00;;;2.20;;
549;SDS011;20066;48.764;9.176;2023-04-25T01:08:18;6.35;;;2.60;;
549;SDS011;20066;48.764;9.176;2023-04-25T01:10:45;4.85;;;2.00;;
549;SDS011;20066;48.764;9.176;2023-04-25T01:13:15;2.88;;;2.53;;
549;SDS011;20066;48.764;9.176;2023-04-25T01:15:42;3.65;;;2.50;;
549;SDS011;20066;48.764;9.176;2023-04-25T01:18:11;4.82;;;2.35;;
549;SDS011;20066;48.764;9.176;2023-04-25T01:20:39;3.50;;;2.55;;
549;SDS011;20066;48.764;9.176;2023-04-25T01:23:10;3.17;;;2.30;;
549;SDS011;20066;48.764;9.176;2023-04-25T01:25:38;4.93;;;2.25;;
549;SDS011;20066;48.764;9.176;2023-04-25T01:28:06;5.72;;;2.53;;
549;SDS011;20066;48.764;9.176;2023-04-25T01:30:34;2.60;;;2.10;;
549;SDS011;20066;48.764;9.176;2023-04-25T01:33:03;5.18;;;2.72;;
549;SDS011;20066;48.764;9.176;2023-04-25T01:35:32;5.60;;;2.33;;
549;SDS011;20066;48.764;9.176;2023-04-25T01:37:59;3.05;;;2.30;;
549;SDS011;20066;48.764;9.176;2023-04-25T01:40:29;4.90;;;2.55;;
549;SDS011;20066;48.764;9.176;2023-04-25T01:42:58;4.57;;;2.75;;
549;SDS011;20066;48.764;9.176;2023-04-25T01:45:27;3.78;;;2.53;;
549;SDS011;20066;48.764;9.176;2023-04-25T01:47:55;6.05;;;2.40;;
549;SDS011;20066;48.764;9.176;2023-04-25T01:50:25;8.43;;;2.88;;
549;SDS011;20066;48.764;9.176;2023-04-25T01:52:53;3.70;;;2.50;;
549;SDS011;20066;48.764;9.176;2023-04-25T01:55:21;4.88;;;1.83;;
549;SDS011;20066;48.764;9.176;2023-04-25T01:57:50;3.05;;;2.35;;
549;SDS011;20066;48.764;9.176;2023-04-25T02:00:18;5.25;;;2.80;;
549;SDS011;20066;48.764;9.176;2023-04-25T02:02:47;6.07;;;2.42;;
549;SDS011;20066;48.764;9.176;2023-04-25T02:05:17;5.18;;;2.80;;
549;SDS011;20066;48.764;9.176;2023-04-25T02:07:45;3.58;;;2.55;;
549;SDS011;20066;48.764;9.176;2023-04-25T02:10:12;6.45;;;2.55;;
549;SDS011;20066;48.764;9.176;2023-04-25T02:12:41;8.93;;;4.30;;
549;SDS011;20066;48.764;9.176;2023-04-25T02:15:10;9.15;;;3.15;;
549;SDS011;20066;48.764;9.176;2023-04-25T02:17:38;7.68;;;2.85;;
549;SDS011;20066;48.764;9.176;2023-04-25T02:20:06;4.40;;;2.35;;
549;SDS011;20066;48.764;9.176;2023-04-25T02:22:34;3.50;;;2.25;;
549;SDS011;20066;48.764;9.176;2023-04-25T02:25:03;6.18;;;2.55;;
549;SDS011;20066;48.764;9.176;2023-04-25T02:27:32;3.55;;;2.53;;
549;SDS011;20066;48.764;9.176;2023-04-25T02:29:59;4.28;;;2.50;;
549;SDS011;20066;48.764;9.176;2023-04-25T02:32:29;3.47;;;2.22;;
549;SDS011;20066;48.764;9.176;2023-04-25T02:34:56;4.25;;;2.20;;
549;SDS011;20066;48.764;9.176;2023-04-25T02:37:24;2.78;;;1.90;;
549;SDS011;20066;48.764;9.176;2023-04-25T02:39:52;3.53;;;1.92;;
549;SDS011;20066;48.764;9.176;2023-04-25T02:42:20;4.63;;;2.17;;
549;SDS011;20066;48.764;9.176;2023-04-25T02:44:48;4.22;;;2.20;;
549;SDS011;20066;48.764;9.176;2023-04-25T02:47:15;5.22;;;2.30;;
549;SDS011;20066;48.764;9.176;2023-04-25T02:49:45;5.00;;;2.17;;
549;SDS011;20066;48.764;9.176;2023-04-25T02:52:12;8.85;;;2.50;;
549;SDS011;20066;48.764;9.176;2023-04-25T02:54:41;5.20;;;2.20;;
549;SDS011;20066;48.764;9.176;2023-04-25T02:57:08;5.15;;;2.03;;
549;SDS011;20066;48.764;9.176;2023-04-25T02:59:36;3.22;;;1.73;;
549;SDS011;20066;48.764;9.176;2023-04-25T03:02:04;6.82;;;2.22;;
549;SDS011;20066;48.764;9.176;2023-04-25T03:04:32;3.70;;;1.85;;
549;SDS011;20066;48.764;9.176;2023-04-25T03:07:01;3.75;;;1.92;;
549;SDS011;20066;48.764;9.176;2023-04-25T03:09:29;3.70;;;1.98;;
549;SDS011;20066;48.764;9.176;2023-04-25T03:11:57;4.40;;;2.25;;
549;SDS011;20066;48.764;9.176;2023-04-25T03:14:25;3.65;;;2.15;;
549;SDS011;20066;48.764;9.176;2023-04-25T03:16:52;4.35;;;2.17;;
549;SDS011;20066;48.764;9.176;2023-04-25T03:19:20;3.75;;;2.00;;
549;SDS011;20066;48.764;9.176;2023-04-25T03:21:48;2.75;;;2.03;;
549;SDS011;20066;48.764;9.176;2023-04-25T03:24:17;8.50;;;2.40;;
549;SDS011;20066;48.764;9.176;2023-04-25T03:26:45;3.33;;;2.20;;
549;SDS011;20066;48.764;9.176;2023-04-25T03:29:13;4.45;;;2.63;;
549;SDS011;20066;48.764;9.176;2023-04-25T03:31:41;3.83;;;2.20;;
549;SDS011;20066;48.764;9.176;2023-04-25T03:34:08;3.70;;;2.20;;
549;SDS011;20066;48.764;9.176;2023-04-25T03:36:36;4.65;;;2.58;;
549;SDS011;20066;48.764;9.176;2023-04-25T03:39:06;4.75;;;2.58;;
549;SDS011;20066;48.764;9.176;2023-04-25T03:41:36;4.65;;;2.15;;
549;SDS011;20066;48.764;9.176;2023-04-25T03:44:03;4.78;;;2.35;;
549;SDS011;20066;48.764;9.176;2023-04-25T03:46:31;4.38;;;2.50;;
549;SDS011;20066;48.764;9.176;2023-04-25T03:48:59;6.70;;;2.95;;
549;SDS011;20066;48.764;9.176;2023-04-25T03:51:26;6.43;;;2.78;;
549;SDS011;20066;48.764;9.176;2023-04-25T03:53:54;4.45;;;2.50;;
549;SDS011;20066;48.764;9.176;2023-04-25T03:56:22;5.50;;;2.70;;
549;SDS011;20066;48.764;9.176;2023-04-25T03:58:52;4.38;;;2.50;;
549;SDS011;20066;48.764;9.176;2023-04-25T04:01:20;6.10;;;2.60;;
549;SDS011;20066;48.764;9.176;2023-04-25T04:03:47;3.30;;;1.95;;
549;SDS011;20066;48.764;9.176;2023-04-25T04:06:16;4.45;;;2.50;;
549;SDS011;20066;48.764;9.176;2023-04-25T04:08:44;5.43;;;2.75;;
549;SDS011;20066;48.764;9.176;2023-04-25T04:11:12;4.05;;;2.28;;
549;SDS011;20066;48.764;9.176;2023-04-25T04:13:40;4.18;;;2.30;;
549;SDS011;20066;48.764;9.176;2023-04-25T04:16:09;4.93;;;2.97;;
549;SDS011;20066;48.764;9.176;2023-04-25T04:18:37;3.97;;;2.47;;
549;SDS011;20066;48.764;9.176;2023-04-25T04:21:05;4.00;;;2.58;;
549;SDS011;20066;48.764;9.176;2023-04-25T04:23:32;3.50;;;2.15;;
549;SDS011;20066;48.764;9.176;2023-04-25T04:26:02;5.78;;;2.50;;
549;SDS011;20066;48.764;9.176;2023-04-25T04:28:31;3.67;;;2.40;;
549;SDS011;20066;48.764;9.176;2023-04-25T04:30:59;12.07;;;3.25;;
549;SDS011;20066;48.764;9.176;2023-04-25T04:33:28;4.28;;;2.60;;
549;SDS011;20066;48.764;9.176;2023-04-25T04:35:57;5.07;;;2.70;;
549;SDS011;20066;48.764;9.176;2023-04-25T04:38:25;7.80;;;2.72;;
549;SDS011;20066;48.764;9.176;2023-04-25T04:40:52;7.90;;;2.67;;
549;SDS011;20066;48.764;9.176;2023-04-25T04:43:20;5.20;;;2.85;;
549;SDS011;20066;48.764;9.176;2023-04-25T04:45:49;4.97;;;2.40;;
549;SDS011;20066;48.764;9.176;2023-04-25T04:48:17;7.88;;;2.80;;
549;SDS011;20066;48.764;9.176;2023-04-25T04:50:46;5.85;;;2.80;;
549;SDS011;20066;48.764;9.176;2023-04-25T04:53:14;5.10;;;2.97;;
549;SDS011;20066;48.764;9.176;2023-04-25T04:55:42;4.60;;;2.70;;
549;SDS011;20066;48.764;9.176;2023-04-25T04:58:10;6.50;;;2.85;;
549;SDS011;20066;48.764;9.176;2023-04-25T05:00:37;5.25;;;2.80;;
549;SDS011;20066;48.764;9.176;2023-04-25T05:03:06;6.82;;;3.08;;
549;SDS011;20066;48.764;9.176;2023-04-25T05:05:34;5.25;;;2.80;;
549;SDS011;20066;48.764;9.176;2023-04-25T05:08:07;4.53;;;3.00;;
549;SDS011;20066;48.764;9.176;2023-04-25T05:10:35;5.82;;;2.90;;
549;SDS011;20066;48.764;9.176;2023-04-25T05:13:03;7.90;;;2.60;;
549;SDS011;20066;48.764;9.176;2023-04-25T05:15:32;5.93;;;2.88;;
549;SDS011;20066;48.764;9.176;2023-04-25T05:18:00;6.90;;;3.05;;
549;SDS011;20066;48.764;9.176;2023-04-25T05:20:28;4.88;;;3.35;;
549;SDS011;20066;48.764;9.176;2023-04-25T05:22:55;10.60;;;3.30;;
549;SDS011;20066;48.764;9.176;2023-04-25T05:25:25;6.45;;;2.53;;
549;SDS011;20066;48.764;9.176;2023-04-25T05:27:53;6.75;;;2.33;;
549;SDS011;20066;48.764;9.176;2023-04-25T05:30:21;5.80;;;2.80;;
549;SDS011;20066;48.764;9.176;2023-04-25T05:32:49;5.55;;;3.08;;
549;SDS011;20066;48.764;9.176;2023-04-25T05:35:17;9.57;;;2.85;;
549;SDS011;20066;48.764;9.176;2023-04-25T05:37:45;4.75;;;2.85;;
549;SDS011;20066;48.764;9.176;2023-04-25T05:40:13;11.05;;;3.15;;
549;SDS011;20066;48.764;9.176;2023-04-25T05:42:42;5.43;;;2.88;;
549;SDS011;20066;48.764;9.176;2023-04-25T05:45:10;6.90;;;3.20;;
549;SDS011;20066;48.764;9.176;2023-04-25T05:47:39;5.60;;;2.88;;
549;SDS011;20066;48.764;9.176;2023-04-25T05:50:07;6.53;;;3.30;;
549;SDS011;20066;48.764;9.176;2023-04-25T05:52:36;3.45;;;2.40;;
549;SDS011;20066;48.764;9.176;2023-04-25T05:55:04;6.43;;;2.90;;
549;SDS011;20066;48.764;9.176;2023-04-25T05:57:33;5.65;;;2.72;;
549;SDS011;20066;48.764;9.176;2023-04-25T06:00:03;4.75;;;2.67;;
549;SDS011;20066;48.764;9.176;2023-04-25T06:02:35;4.38;;;2.70;;
549;SDS011;20066;48.764;9.176;2023-04-25T06:05:03;4.35;;;2.65;;
549;SDS011;20066;48.764;9.176;2023-04-25T06:07:32;2.65;;;2.17;;
549;SDS011;20066;48.764;9.176;2023-04-25T06:10:00;4.35;;;2.83;;
549;SDS011;20066;48.764;9.176;2023-04-25T06:12:28;6.35;;;2.70;;
549;SDS011;20066;48.764;9.176;2023-04-25T06:14:56;5.85;;;2.78;;
549;SDS011;20066;48.764;9.176;2023-04-25T06:17:26;4.18;;;2.70;;
549;SDS011;20066;48.764;9.176;2023-04-25T06:19:54;11.23;;;2.90;;
549;SDS011;20066;48.764;9.176;2023-04-25T06:22:22;5.72;;;2.70;;
549;SDS011;20066;48.764;9.176;2023-04-25T06:24:50;5.03;;;2.85;;
549;SDS011;20066;48.764;9.176;2023-04-25T06:27:18;6.78;;;3.60;;
549;SDS011;20066;48.764;9.176;2023-04-25T06:29:46;5.90;;;4.80;;
549;SDS011;20066;48.764;9.176;2023-04-25T06:32:14;5.50;;;2.40;;
549;SDS011;20066;48.764;9.176;2023-04-25T06:34:43;4.75;;;2.63;;
549;SDS011;20066;48.764;9.176;2023-04-25T06:37:11;6.57;;;3.10;;
549;SDS011;20066;48.764;9.176;2023-04-25T06:39:39;7.97;;;3.25;;
549;SDS011;20066;48.764;9.176;2023-04-25T06:42:07;5.63;;;3.05;;
549;SDS011;20066;48.764;9.176;2023-04-25T06:44:35;4.10;;;2.55;;
549;SDS011;20066;48.764;9.176;2023-04-25T06:47:04;7.97;;;2.72;;
549;SDS011;20066;48.764;9.176;2023-04-25T06:49:32;3.50;;;2.50;;
549;SDS011;20066;48.764;9.176;2023-04-25T06:52:01;4.72;;;2.90;;
549;SDS011;20066;48.764;9.176;2023-04-25T06:54:29;4.75;;;2.80;;
549;SDS011;20066;48.764;9.176;2023-04-25T06:56:57;4.65;;;2.70;;
549;SDS011;20066;48.764;9.176;2023-04-25T06:59:27;4.63;;;2.92;;
549;SDS011;20066;48.764;9.176;2023-04-25T07:01:55;4.70;;;3.00;;
549;SDS011;20066;48.764;9.176;2023-04-25T07:04:22;3.45;;;2.67;;
549;SDS011;20066;48.764;9.176;2023-04-25T07:06:51;5.90;;;3.00;;
549;SDS011;20066;48.764;9.176;2023-04-25T07:09:22;6.40;;;3.25;;
549;SDS011;20066;48.764;9.176;2023-04-25T07:11:50;9.52;;;3.10;;
549;SDS011;20066;48.764;9.176;2023-04-25T07:14:19;6.65;;;3.33;;
549;SDS011;20066;48.764;9.176;2023-04-25T07:16:48;9.93;;;2.83;;
549;SDS011;20066;48.764;9.176;2023-04-25T07:19:16;5.13;;;2.85;;
549;SDS011;20066;48.764;9.176;2023-04-25T07:21:44;6.32;;;3.13;;
549;SDS011;20066;48.764;9.176;2023-04-25T07:24:12;5.40;;;3.20;;
549;SDS011;20066;48.764;9.176;2023-04-25T07:26:42;5.13;;;3.30;;
549;SDS011;20066;48.764;9.176;2023-04-25T07:29:10;6.45;;;3.15;;
549;SDS011;20066;48.764;9.176;2023-04-25T07:31:38;4.57;;;3.47;;
549;SDS011;20066;48.764;9.176;2023-04-25T07:34:07;6.05;;;3.80;;
549;SDS011;20066;48.764;9.176;2023-04-25T07:36:35;5.20;;;3.78;;
549;SDS011;20066;48.764;9.176;2023-04-25T07:39:03;6.93;;;4.05;;
549;SDS011;20066;48.764;9.176;2023-04-25T07:41:32;5.97;;;3.90;;
549;SDS011;20066;48.764;9.176;2023-04-25T07:44:03;6.53;;;3.85;;
549;SDS011;20066;48.764;9.176;2023-04-25T07:46:31;7.85;;;3.78;;
549;SDS011;20066;48.764;9.176;2023-04-25T07:49:00;7.25;;;4.10;;
549;SDS011;20066;48.764;9.176;2023-04-25T07:51:28;7.20;;;4.20;;
549;SDS011;20066;48.764;9.176;2023-04-25T07:53:56;5.05;;;3.80;;
549;SDS011;20066;48.764;9.176;2023-04-25T07:56:24;7.05;;;3.63;;
549;SDS011;20066;48.764;9.176;2023-04-25T07:58:52;6.45;;;3.40;;
549;SDS011;20066;48.764;9.176;2023-04-25T08:01:22;6.78;;;3.88;;
549;SDS011;20066;48.764;9.176;2023-04-25T08:03:50;6.93;;;4.10;;
549;SDS011;20066;48.764;9.176;2023-04-25T08:06:18;6.00;;;4.20;;
549;SDS011;20066;48.764;9.176;2023-04-25T08:08:47;9.32;;;3.95;;
549;SDS011;20066;48.764;9.176;2023-04-25T08:11:15;7.38;;;3.67;;
549;SDS011;20066;48.764;9.176;2023-04-25T08:13:43;6.60;;;4.00;;
549;SDS011;20066;48.764;9.176;2023-04-25T08:16:12;7.07;;;4.00;;
549;SDS011;20066;48.764;9.176;2023-04-25T08:18:42;4.80;;;3.70;;
549;SDS011;20066;48.764;9.176;2023-04-25T08:21:10;7.40;;;4.53;;
549;SDS011;20066;48.764;9.176;2023-04-25T08:23:38;9.43;;;4.30;;
549;SDS011;20066;48.764;9.176;2023-04-25T08:26:06;6.72;;;3.70;;
549;SDS011;20066;48.764;9.176;2023-04-25T08:28:34;7.57;;;3.55;;
549;SDS011;20066;48.764;9.176;2023-04-25T08:31:03;6.97;;;4.15;;
549;SDS011;20066;48.764;9.176;2023-04-25T08:33:31;8.93;;;4.35;;
549;SDS011;20066;48.764;9.176;2023-04-25T08:36:00;7.70;;;4.10;;
549;SDS011;20066;48.764;9.176;2023-04-25T08:38:28;7.55;;;4.68;;
549;SDS011;20066;48.764;9.176;2023-04-25T08:40:56;8.32;;;3.90;;
549;SDS011;20066;48.764;9.176;2023-04-25T08:43:27;8.55;;;4.90;;
549;SDS011;20066;48.764;9.176;2023-04-25T08:45:57;5.88;;;3.95;;
549;SDS011;20066;48.764;9.176;2023-04-25T08:48:27;6.18;;;3.63;;
549;SDS011;20066;48.764;9.176;2023-04-25T08:50:56;7.28;;;3.97;;
549;SDS011;20066;48.764;9.176;2023-04-25T08:53:26;12.73;;;5.28;;
549;SDS011;20066;48.764;9.176;2023-04-25T08:55:57;10.07;;;4.13;;
549;SDS011;20066;48.764;9.176;2023-04-25T08:58:28;8.98;;;4.50;;
549;SDS011;20066;48.764;9.176;2023-04-25T09:00:56;7.15;;;4.50;;
549;SDS011;20066;48.764;9.176;2023-04-25T09:03:24;7.07;;;4.72;;
549;SDS011;20066;48.764;9.176;2023-04-25T09:05:52;10.98;;;4.78;;
549;SDS011;20066;48.764;9.176;2023-04-25T09:08:21;9.18;;;4.38;;
549;SDS011;20066;48.764;9.176;2023-04-25T09:10:50;11.25;;;5.15;;
549;SDS011;20066;48.764;9.176;2023-04-25T09:13:23;6.78;;;4.10;;
549;SDS011;20066;48.764;9.176;2023-04-25T09:15:53;6.80;;;4.05;;
549;SDS011;20066;48.764;9.176;2023-04-25T09:18:22;7.00;;;3.67;;
549;SDS011;20066;48.764;9.176;2023-04-25T09:20:55;9.63;;;5.35;;
549;SDS011;20066;48.764;9.176;2023-04-25T09:23:29;7.10;;;4.65;;
549;SDS011;20066;48.764;9.176;2023-04-25T09:25:59;5.88;;;3.88;;
549;SDS011;20066;48.764;9.176;2023-04-25T09:28:27;8.02;;;4.50;;
549;SDS011;20066;48.764;9.176;2023-04-25T09:30:56;14.20;;;4.53;;
549;SDS011;20066;48.764;9.176;2023-04-25T09:33:28;8.10;;;4.75;;
549;SDS011;20066;48.764;9.176;2023-04-25T09:36:01;11.45;;;5.22;;
549;SDS011;20066;48.764;9.176;2023-04-25T09:38:32;7.40;;;4.90;;
549;SDS011;20066;48.764;9.176;2023-04-25T09:41:09;7.30;;;4.50;;
549;SDS011;20066;48.764;9.176;2023-04-25T09:43:38;8.18;;;5.00;;
549;SDS011;20066;48.764;9.176;2023-04-25T09:46:07;7.30;;;4.40;;
549;SDS011;20066;48.764;9.176;2023-04-25T09:48:37;8.65;;;4.28;;
549;SDS011;20066;48.764;9.176;2023-04-25T09:51:06;6.80;;;4.88;;
549;SDS011;20066;48.764;9.176;2023-04-25T09:53:35;6.18;;;4.10;;
549;SDS011;20066;48.764;9.176;2023-04-25T09:56:05;5.40;;;3.38;;
549;SDS011;20066;48.764;9.176;2023-04-25T09:58:35;6.65;;;3.50;;
549;SDS011;20066;48.764;9.176;2023-04-25T10:01:06;5.35;;;3.40;;
549;SDS011;20066;48.764;9.176;2023-04-25T10:03:54;5.72;;;3.67;;
549;SDS011;20066;48.764;9.176;2023-04-25T10:06:26;6.53;;;3.28;;
549;SDS011;20066;48.764;9.176;2023-04-25T10:08:56;4.85;;;3.10;;
549;SDS011;20066;48.764;9.176;2023-04-25T10:11:24;5.25;;;3.00;;
549;SDS011;20066;48.764;9.176;2023-04-25T10:13:54;3.13;;;1.73;;
549;SDS011;20066;48.764;9.176;2023-04-25T10:16:23;4.57;;;2.50;;
549;SDS011;20066;48.764;9.176;2023-04-25T10:18:52;2.55;;;1.70;;
549;SDS011;20066;48.764;9.176;2023-04-25T10:21:20;3.45;;;2.22;;
549;SDS011;20066;48.764;9.176;2023-04-25T10:23:49;3.00;;;1.70;;
549;SDS011;20066;48.764;9.176;2023-04-25T10:26:18;3.50;;;2.20;;
549;SDS011;20066;48.764;9.176;2023-04-25T10:28:59;2.88;;;1.85;;
549;SDS011;20066;48.764;9.176;2023-04-25T10:31:29;2.97;;;2.00;;
549;SDS011;20066;48.764;9.176;2023-04-25T10:33:59;3.63;;;2.40;;
549;SDS011;20066;48.764;9.176;2023-04-25T10:36:27;3.50;;;1.70;;
549;SDS011;20066;48.764;9.176;2023-04-25T10:39:02;5.07;;;1.90;;
549;SDS011;20066;48.764;9.176;2023-04-25T10:41:45;2.65;;;1.90;;
549;SDS011;20066;48.764;9.176;2023-04-25T10:44:15;5.47;;;1.90;;
549;SDS011;20066;48.764;9.176;2023-04-25T10:46:44;1.95;;;1.42;;
549;SDS011;20066;48.764;9.176;2023-04-25T10:49:27;3.38;;;1.60;;
549;SDS011;20066;48.764;9.176;2023-04-25T10:52:18;5.47;;;1.75;;
549;SDS011;20066;48.764;9.176;2023-04-25T10:54:53;7.15;;;1.80;;
549;SDS011;20066;48.764;9.176;2023-04-25T10:57:31;3.13;;;1.90;;
549;SDS011;20066;48.764;9.176;2023-04-25T11:00:13;5.78;;;3.03;;
549;SDS011;20066;48.764;9.176;2023-04-25T11:02:43;9.90;;;4.15;;
549;SDS011;20066;48.764;9.176;2023-04-25T11:05:20;6.32;;;4.05;;
549;SDS011;20066;48.764;9.176;2023-04-25T11:07:51;7.20;;;3.38;;
549;SDS011;20066;48.764;9.176;2023-04-25T11:10:40;6.20;;;4.10;;
549;SDS011;20066;48.764;9.176;2023-04-25T11:13:09;7.80;;;3.90;;
549;SDS011;20066;48.764;9.176;2023-04-25T11:15:38;6.68;;;3.28;;
549;SDS011;20066;48.764;9.176;2023-04-25T11:18:06;5.20;;;3.35;;
549;SDS011;20066;48.764;9.176;2023-04-25T11:20:35;5.68;;;3.38;;
549;SDS011;20066;48.764;9.176;2023-04-25T11:23:03;4.97;;;2.90;;
549;SDS011;20066;48.764;9.176;2023-04-25T11:25:31;3.88;;;2.50;;
549;SDS011;20066;48.764;9.176;2023-04-25T11:28:03;4.25;;;2.70;;
549;SDS011;20066;48.764;9.176;2023-04-25T11:30:31;4.85;;;2.40;;
549;SDS011;20066;48.764;9.176;2023-04-25T11:33:00;3.92;;;2.80;;
549;SDS011;20066;48.764;9.176;2023-04-25T11:35:29;3.40;;;2.50;;
549;SDS011;20066;48.764;9.176;2023-04-25T11:37:59;2.40;;;1.67;;
549;SDS011;20066;48.764;9.176;2023-04-25T11:40:28;2.47;;;1.80;;
549;SDS011;20066;48.764;9.176;2023-04-25T11:42:59;3.70;;;1.70;;
549;SDS011;20066;48.764;9.176;2023-04-25T11:45:27;2.30;;;1.83;;
549;SDS011;20066;48.764;9.176;2023-04-25T11:47:57;2.70;;;2.00;;
549;SDS011;20066;48.764;9.176;2023-04-25T11:50:26;3.40;;;2.22;;
549;SDS011;20066;48.764;9.176;2023-04-25T11:52:56;3.65;;;2.30;;
549;SDS011;20066;48.764;9.176;2023-04-25T11:55:24;3.97;;;2.55;;
549;SDS011;20066;48.764;9.176;2023-04-25T11:57:52;3.40;;;2.60;;
549;SDS011;20066;48.764;9.176;2023-04-25T12:00:20;4.65;;;3.20;;
549;SDS011;20066;48.764;9.176;2023-04-25T12:02:50;5.45;;;3.35;;
549;SDS011;20066;48.764;9.176;2023-04-25T12:05:20;4.93;;;3.25;;
549;SDS011;20066;48.764;9.176;2023-04-25T12:07:55;4.72;;;3.20;;
549;SDS011;20066;48.764;9.176;2023-04-25T12:10:23;4.78;;;3.13;;
549;SDS011;20066;48.764;9.176;2023-04-25T12:12:52;5.25;;;3.78;;
549;SDS011;20066;48.764;9.176;2023-04-25T12:15:23;5.70;;;3.85;;
549;SDS011;20066;48.764;9.176;2023-04-25T12:17:53;5.53;;;3.42;;
549;SDS011;20066;48.764;9.176;2023-04-25T12:20:23;6.20;;;3.72;;
549;SDS011;20066;48.764;9.176;2023-04-25T12:22:52;6.30;;;3.65;;
549;SDS011;20066;48.764;9.176;2023-04-25T12:25:35;9.20;;;4.45;;
549;SDS011;20066;48.764;9.176;2023-04-25T12:28:11;5.78;;;3.78;;
549;SDS011;20066;48.764;9.176;2023-04-25T12:30:53;5.97;;;3.30;;
549;SDS011;20066;48.764;9.176;2023-04-25T12:33:22;5.13;;;3.17;;
549;SDS011;20066;48.764;9.176;2023-04-25T12:35:50;6.18;;;3.10;;
549;SDS011;20066;48.764;9.176;2023-04-25T12:38:22;6.28;;;3.80;;
549;SDS011;20066;48.764;9.176;2023-04-25T12:40:52;6.82;;;3.78;;
549;SDS011;20066;48.764;9.176;2023-04-25T12:43:20;7.93;;;4.05;;
549;SDS011;20066;48.764;9.176;2023-04-25T12:45:49;5.72;;;3.50;;
549;SDS011;20066;48.764;9.176;2023-04-25T12:48:17;28.55;;;9.63;;
549;SDS011;20066;48.764;9.176;2023-04-25T12:50:46;10.20;;;4.20;;
549;SDS011;20066;48.764;9.176;2023-04-25T12:53:15;8.00;;;4.70;;
549;SDS011;20066;48.764;9.176;2023-04-25T12:55:43;10.45;;;4.47;;
549;SDS011;20066;48.764;9.176;2023-04-25T12:58:13;7.35;;;4.40;;
549;SDS011;20066;48.764;9.176;2023-04-25T13:00:41;7.90;;;4.15;;
549;SDS011;20066;48.764;9.176;2023-04-25T13:03:09;7.03;;;4.55;;
549;SDS011;20066;48.764;9.176;2023-04-25T13:05:38;9.90;;;4.07;;
549;SDS011;20066;48.764;9.176;2023-04-25T13:08:07;6.70;;;4.30;;
549;SDS011;20066;48.764;9.176;2023-04-25T13:10:35;8.50;;;4.43;;
549;SDS011;20066;48.764;9.176;2023-04-25T13:13:04;7.20;;;4.13;;
549;SDS011;20066;48.764;9.176;2023-04-25T13:15:33;7.63;;;4.10;;
549;SDS011;20066;48.764;9.176;2023-04-25T13:18:02;11.00;;;4.60;;
549;SDS011;20066;48.764;9.176;2023-04-25T13:20:30;9.15;;;4.95;;
549;SDS011;20066;48.764;9.176;2023-04-25T13:22:58;9.50;;;5.05;;
549;SDS011;20066;48.764;9.176;2023-04-25T13:25:28;8.05;;;4.60;;
549;SDS011;20066;48.764;9.176;2023-04-25T13:27:56;8.32;;;4.78;;
549;SDS011;20066;48.764;9.176;2023-04-25T13:30:23;8.83;;;4.63;;
549;SDS011;20066;48.764;9.176;2023-04-25T13:32:53;8.70;;;4.70;;
549;SDS011;20066;48.764;9.176;2023-04-25T13:35:23;10.00;;;5.35;;
549;SDS011;20066;48.764;9.176;2023-04-25T13:37:51;14.10;;;4.53;;
549;SDS011;20066;48.764;9.176;2023-04-25T13:40:19;8.30;;;4.70;;
549;SDS011;20066;48.764;9.176;2023-04-25T13:42:50;9.50;;;5.30;;
549;SDS011;20066;48.764;9.176;2023-04-25T13:45:18;8.20;;;5.03;;
549;SDS011;20066;48.764;9.176;2023-04-25T13:47:46;10.03;;;4.57;;
549;SDS011;20066;48.764;9.176;2023-04-25T13:50:16;9.47;;;5.17;;
549;SDS011;20066;48.764;9.176;2023-04-25T13:52:44;10.77;;;5.03;;
549;SDS011;20066;48.764;9.176;2023-04-25T13:55:12;10.57;;;5.53;;
549;SDS011;20066;48.764;9.176;2023-04-25T13:57:40;14.90;;;6.80;;
549;SDS011;20066;48.764;9.176;2023-04-25T14:00:08;10.50;;;6.30;;
549;SDS011;20066;48.764;9.176;2023-04-25T14:02:37;10.07;;;6.30;;
549;SDS011;20066;48.764;9.176;2023-04-25T14:05:06;12.30;;;7.13;;
549;SDS011;20066;48.764;9.176;2023-04-25T14:07:37;9.70;;;6.07;;
549;SDS011;20066;48.764;9.176;2023-04-25T14:10:05;12.37;;;7.23;;
549;SDS011;20066;48.764;9.176;2023-04-25T14:12:33;11.13;;;6.73;;
549;SDS011;20066;48.764;9.176;2023-04-25T14:15:01;13.23;;;7.47;;
549;SDS011;20066;48.764;9.176;2023-04-25T14:17:30;10.70;;;6.40;;
549;SDS011;20066;48.764;9.176;2023-04-25T14:19:58;10.70;;;5.87;;
549;SDS011;20066;48.764;9.176;2023-04-25T14:22:26;8.60;;;5.90;;
549;SDS011;20066;48.764;9.176;2023-04-25T14:24:55;8.70;;;5.40;;
549;SDS011;20066;48.764;9.176;2023-04-25T14:27:23;12.60;;;5.90;;
549;SDS011;20066;48.764;9.176;2023-04-25T14:29:54;11.50;;;5.90;;
549;SDS011;20066;48.764;9.176;2023-04-25T14:32:23;9.30;;;6.03;;
549;SDS011;20066;48.764;9.176;2023-04-25T14:34:52;9.07;;;5.47;;
549;SDS011;20066;48.764;9.176;2023-04-25T14:37:20;10.60;;;5.60;;
549;SDS011;20066;48.764;9.176;2023-04-25T14:39:48;10.93;;;4.30;;
549;SDS011;20066;48.764;9.176;2023-04-25T14:42:17;8.13;;;4.30;;
549;SDS011;20066;48.764;9.176;2023-04-25T14:44:45;8.60;;;4.73;;
549;SDS011;20066;48.764;9.176;2023-04-25T14:47:13;10.20;;;4.87;;
549;SDS011;20066;48.764;9.176;2023-04-25T14:49:41;7.87;;;4.97;;
549;SDS011;20066;48.764;9.176;2023-04-25T14:52:10;7.33;;;4.67;;
549;SDS011;20066;48.764;9.176;2023-04-25T14:54:38;6.57;;;4.23;;
549;SDS011;20066;48.764;9.176;2023-04-25T14:57:06;6.60;;;4.00;;
549;SDS011;20066;48.764;9.176;2023-04-25T14:59:35;9.00;;;4.30;;
549;SDS011;20066;48.764;9.176;2023-04-25T15:02:03;6.10;;;4.10;;
549;SDS011;20066;48.764;9.176;2023-04-25T15:04:31;8.70;;;4.23;;
549;SDS011;20066;48.764;9.176;2023-04-25T15:06:59;6.83;;;4.70;;
549;SDS011;20066;48.764;9.176;2023-04-25T15:09:27;7.10;;;4.67;;
549;SDS011;20066;48.764;9.176;2023-04-25T15:11:55;6.07;;;3.63;;
549;SDS011;20066;48.764;9.176;2023-04-25T15:14:23;8.47;;;4.40;;
549;SDS011;20066;48.764;9.176;2023-04-25T15:16:52;7.53;;;4.40;;
549;SDS011;20066;48.764;9.176;2023-04-25T15:19:20;8.70;;;4.10;;
549;SDS011;20066;48.764;9.176;2023-04-25T15:21:48;8.57;;;4.07;;
549;SDS011;20066;48.764;9.176;2023-04-25T15:24:15;6.40;;;4.50;;
549;SDS011;20066;48.764;9.176;2023-04-25T15:26:44;6.20;;;4.40;;